Saint Eustatius, Netherlands Antilles
Current Conditions -  °F | °C
As of 7:00 AM on Tuesday 27 Jan 2015 (Local Time) from TKPN Reporting Station
Scattered Clouds Scattered Clouds  
Wind Chill: 77°   Ceiling: Unl
Heat Index: 79°   Visibility: 6mi
Dew Point: 68°   Wind: 5mph
Humidity: 74%   Direction: 140°SE
Pressure: 30"   Gusts: NA
Location:  17.5°N, 62.97°W
Report Text: TKPN 271100Z 14004KT 9999 SCT024 25/20 Q1016
Loading
Personal Weather Stations






























Interactive Weather Map New forecast layout! Learn more

10-Day Weather Forecast

Advertisements
Track Severe Weather on mobile